createdAt,value
2022-11-27T00:01:21.654Z,15.68
2022-11-27T00:03:49.506Z,16.23
2022-11-27T00:06:20.927Z,15.00
2022-11-27T00:08:48.498Z,15.05
2022-11-27T00:11:19.865Z,14.82
2022-11-27T00:13:47.583Z,14.55
2022-11-27T00:16:15.613Z,13.43
2022-11-27T00:18:43.603Z,13.27
2022-11-27T00:21:41.786Z,13.05
2022-11-27T00:24:11.050Z,13.85
2022-11-27T00:26:38.595Z,13.10
2022-11-27T00:29:07.051Z,13.27
2022-11-27T00:31:37.775Z,14.18
2022-11-27T00:34:07.661Z,14.93
2022-11-27T00:36:35.767Z,13.90
2022-11-27T00:39:04.141Z,13.75
2022-11-27T00:41:31.703Z,14.90
2022-11-27T00:43:59.223Z,15.65
2022-11-27T00:46:29.527Z,17.02
2022-11-27T00:49:02.488Z,16.15
2022-11-27T00:51:30.770Z,14.63
2022-11-27T00:53:58.504Z,15.18
2022-11-27T00:56:31.395Z,15.40
2022-11-27T00:58:59.298Z,14.65
2022-11-27T01:01:27.989Z,15.27
2022-11-27T01:03:56.906Z,18.23
2022-11-27T01:06:24.650Z,18.35
2022-11-27T01:08:51.946Z,20.70
2022-11-27T01:11:28.426Z,20.85
2022-11-27T01:14:04.945Z,18.23
2022-11-27T01:16:33.641Z,17.17
2022-11-27T01:19:02.285Z,16.58
2022-11-27T01:21:32.483Z,15.93
2022-11-27T01:24:00.870Z,13.07
2022-11-27T01:26:28.706Z,13.57
2022-11-27T01:28:57.293Z,13.07
2022-11-27T01:31:27.507Z,11.35
2022-11-27T01:33:57.383Z,11.00
2022-11-27T01:36:25.535Z,12.45
2022-11-27T01:38:52.821Z,10.70
2022-11-27T01:41:28.496Z,10.82
2022-11-27T01:44:20.102Z,10.52
2022-11-27T01:46:49.218Z,10.20
2022-11-27T01:49:31.107Z,10.35
2022-11-27T01:52:06.285Z,10.95
2022-11-27T01:54:42.540Z,10.70
2022-11-27T01:57:19.636Z,12.98
2022-11-27T01:59:49.556Z,14.20
2022-11-27T02:02:16.877Z,15.48
2022-11-27T02:04:44.503Z,14.88
2022-11-27T02:07:11.983Z,14.63
2022-11-27T02:09:39.339Z,13.57
2022-11-27T02:12:28.304Z,12.45
2022-11-27T02:15:00.274Z,11.45
2022-11-27T02:17:58.556Z,10.88
2022-11-27T02:20:34.645Z,10.98
2022-11-27T02:23:46.121Z,10.90
2022-11-27T02:26:57.751Z,11.20
2022-11-27T02:29:29.925Z,10.95
2022-11-27T02:32:22.273Z,10.70
2022-11-27T02:35:04.314Z,10.20
2022-11-27T02:38:07.391Z,11.68
2022-11-27T02:40:49.755Z,11.77
2022-11-27T02:43:25.255Z,11.70
2022-11-27T02:45:53.029Z,11.20
2022-11-27T02:48:24.736Z,11.20
2022-11-27T02:50:54.051Z,11.45
2022-11-27T02:53:46.487Z,11.52
2022-11-27T02:56:18.554Z,11.40
2022-11-27T02:58:48.107Z,12.25
2022-11-27T03:01:17.958Z,15.13
2022-11-27T03:03:47.940Z,13.93
2022-11-27T03:06:22.759Z,14.48
2022-11-27T03:08:51.626Z,15.23
2022-11-27T03:11:18.896Z,13.70
2022-11-27T03:13:53.565Z,12.57
2022-11-27T03:16:39.621Z,13.30
2022-11-27T03:19:09.827Z,11.95
2022-11-27T03:21:43.748Z,10.75
2022-11-27T03:24:12.362Z,10.48
2022-11-27T03:26:40.572Z,10.15
2022-11-27T03:29:15.420Z,10.68
2022-11-27T03:31:42.816Z,11.38
2022-11-27T03:34:10.734Z,12.25
2022-11-27T03:36:37.992Z,13.63
2022-11-27T03:39:05.543Z,13.75
2022-11-27T03:41:38.584Z,16.33
2022-11-27T03:44:25.998Z,17.05
2022-11-27T03:47:15.182Z,15.05
2022-11-27T03:50:14.615Z,11.25
2022-11-27T03:52:44.585Z,11.23
2022-11-27T03:55:38.935Z,9.23
2022-11-27T03:58:25.578Z,8.98
2022-11-27T04:00:54.123Z,9.18
2022-11-27T04:03:26.130Z,9.77
2022-11-27T04:05:53.571Z,10.00
2022-11-27T04:08:21.268Z,9.15
2022-11-27T04:10:48.832Z,9.90
2022-11-27T04:13:16.238Z,9.15
2022-11-27T04:15:43.491Z,8.63
2022-11-27T04:18:10.744Z,8.68
2022-11-27T04:20:38.259Z,9.30
2022-11-27T04:23:05.436Z,9.43
2022-11-27T04:25:33.036Z,8.68
2022-11-27T04:28:00.531Z,9.30
2022-11-27T04:30:27.647Z,8.07
2022-11-27T04:32:54.853Z,8.48
2022-11-27T04:35:21.972Z,8.48
2022-11-27T04:37:49.431Z,7.97
2022-11-27T04:40:16.749Z,8.00
2022-11-27T04:42:43.918Z,8.65
2022-11-27T04:45:11.663Z,8.35
2022-11-27T04:47:38.971Z,7.85
2022-11-27T04:50:07.107Z,8.35
2022-11-27T04:52:34.579Z,7.75
2022-11-27T04:55:01.827Z,8.25
2022-11-27T04:57:29.064Z,8.60
2022-11-27T04:59:56.335Z,7.57
2022-11-27T05:02:23.641Z,8.05
2022-11-27T05:04:50.937Z,8.18
2022-11-27T05:07:18.500Z,7.30
2022-11-27T05:09:45.665Z,7.55
2022-11-27T05:12:12.947Z,8.07
2022-11-27T05:14:40.611Z,7.93
2022-11-27T05:17:07.952Z,8.70
2022-11-27T05:19:35.181Z,7.70
2022-11-27T05:22:02.707Z,7.85
2022-11-27T05:24:30.167Z,7.40
2022-11-27T05:26:58.261Z,7.25
2022-11-27T05:29:26.614Z,6.35
2022-11-27T05:31:53.988Z,7.57
2022-11-27T05:34:21.488Z,7.15
2022-11-27T05:36:49.136Z,7.57
2022-11-27T05:39:16.748Z,7.65
2022-11-27T05:41:44.496Z,7.30
2022-11-27T05:44:14.238Z,8.60
2022-11-27T05:46:43.879Z,8.18
2022-11-27T05:49:16.103Z,7.85
2022-11-27T05:51:50.398Z,8.20
2022-11-27T05:54:18.657Z,8.15
2022-11-27T05:56:45.993Z,8.30
2022-11-27T05:59:13.327Z,8.05
2022-11-27T06:01:40.610Z,7.80
2022-11-27T06:04:07.871Z,9.13
2022-11-27T06:06:35.122Z,9.30
2022-11-27T06:09:02.333Z,7.25
2022-11-27T06:11:29.659Z,6.32
2022-11-27T06:13:56.915Z,6.65
2022-11-27T06:16:24.836Z,6.60
2022-11-27T06:18:56.182Z,7.43
2022-11-27T06:21:24.536Z,6.93
2022-11-27T06:23:58.160Z,6.55
2022-11-27T06:26:28.125Z,6.45
2022-11-27T06:28:56.589Z,6.00
2022-11-27T06:31:26.689Z,7.00
2022-11-27T06:33:55.875Z,6.90
2022-11-27T06:36:26.964Z,7.40
2022-11-27T06:38:54.438Z,6.80
2022-11-27T06:41:24.924Z,7.80
2022-11-27T06:43:52.511Z,7.57
2022-11-27T06:46:22.122Z,7.90
2022-11-27T06:48:51.080Z,7.60
2022-11-27T06:51:24.655Z,6.65
2022-11-27T06:53:52.957Z,5.75
2022-11-27T06:56:23.655Z,5.72
2022-11-27T06:59:13.035Z,5.95
2022-11-27T07:01:40.604Z,6.45
2022-11-27T07:04:10.299Z,5.50
2022-11-27T07:06:37.697Z,5.93
2022-11-27T07:09:05.893Z,5.95
2022-11-27T07:11:33.833Z,5.45
2022-11-27T07:14:03.935Z,4.97
2022-11-27T07:16:34.211Z,5.70
2022-11-27T07:19:05.207Z,5.85
2022-11-27T07:21:33.117Z,5.82
2022-11-27T07:24:01.607Z,5.43
2022-11-27T07:26:30.105Z,6.65
2022-11-27T07:28:57.735Z,6.00
2022-11-27T07:31:28.446Z,5.80
2022-11-27T07:33:56.188Z,9.25
2022-11-27T07:36:29.253Z,130.45
2022-11-27T07:38:56.805Z,200.20
2022-11-27T07:41:25.310Z,146.07
2022-11-27T07:43:54.071Z,97.45
2022-11-27T07:46:23.602Z,54.75
2022-11-27T07:48:50.945Z,39.60
2022-11-27T07:51:20.433Z,13.55
2022-11-27T07:53:48.821Z,15.10
2022-11-27T07:56:17.028Z,24.95
2022-11-27T07:58:44.665Z,13.05
2022-11-27T08:01:15.638Z,8.65
2022-11-27T08:03:45.827Z,6.50
2022-11-27T08:06:22.362Z,6.38
2022-11-27T08:08:50.381Z,7.10
2022-11-27T08:11:23.315Z,7.63
2022-11-27T08:13:51.127Z,7.05
2022-11-27T08:16:18.833Z,9.00
2022-11-27T08:18:46.077Z,9.50
2022-11-27T08:21:13.524Z,6.35
2022-11-27T08:23:40.984Z,24.70
2022-11-27T08:26:09.942Z,13.43
2022-11-27T08:28:38.364Z,9.82
2022-11-27T08:31:07.652Z,14.25
2022-11-27T08:33:35.042Z,12.88
2022-11-27T08:36:02.889Z,9.30
2022-11-27T08:38:30.082Z,9.95
2022-11-27T08:40:59.031Z,14.23
2022-11-27T08:43:27.291Z,14.43
2022-11-27T08:45:55.131Z,9.40
2022-11-27T08:48:23.336Z,9.85
2022-11-27T08:50:51.461Z,13.48
2022-11-27T08:53:19.060Z,9.43
2022-11-27T08:55:46.811Z,15.75
2022-11-27T08:58:14.441Z,13.75
2022-11-27T09:00:42.077Z,11.35
2022-11-27T09:03:11.961Z,10.65
2022-11-27T09:05:44.125Z,12.15
2022-11-27T09:08:13.732Z,70.00
2022-11-27T09:10:40.906Z,12.38
2022-11-27T09:13:08.218Z,12.55
2022-11-27T09:15:35.515Z,13.80
2022-11-27T09:18:02.726Z,30.92
2022-11-27T09:20:29.936Z,11.90
2022-11-27T09:22:57.174Z,17.88
2022-11-27T09:25:24.795Z,16.63
2022-11-27T09:27:52.233Z,22.38
2022-11-27T09:30:19.495Z,21.42
2022-11-27T09:32:46.638Z,12.50
2022-11-27T09:35:15.041Z,10.85
2022-11-27T09:37:42.600Z,12.75
2022-11-27T09:40:17.330Z,19.70
2022-11-27T09:43:03.172Z,11.73
2022-11-27T09:45:31.927Z,9.27
2022-11-27T09:48:05.663Z,13.20
2022-11-27T09:50:39.067Z,17.33
2022-11-27T09:53:21.993Z,11.45
2022-11-27T09:55:52.207Z,12.55
2022-11-27T09:58:26.089Z,17.85
2022-11-27T10:00:53.390Z,12.45
2022-11-27T10:03:29.013Z,9.85
2022-11-27T10:06:21.145Z,11.27
2022-11-27T10:09:09.544Z,8.27
2022-11-27T10:11:57.067Z,10.63
2022-11-27T10:14:57.775Z,10.85
2022-11-27T10:17:39.163Z,12.43
2022-11-27T10:20:18.272Z,11.00
2022-11-27T10:23:16.380Z,9.93
2022-11-27T10:26:01.693Z,11.93
2022-11-27T10:28:35.261Z,8.95
2022-11-27T10:31:22.504Z,15.15
2022-11-27T10:34:01.632Z,12.98
2022-11-27T10:36:43.827Z,18.40
2022-11-27T10:39:22.610Z,24.48
2022-11-27T10:42:03.308Z,9.98
2022-11-27T10:44:32.830Z,13.52
2022-11-27T10:47:08.958Z,9.40
2022-11-27T10:49:40.389Z,13.57
2022-11-27T10:52:16.356Z,13.70
2022-11-27T10:54:45.955Z,29.90
2022-11-27T10:57:32.669Z,24.10
2022-11-27T11:00:12.195Z,25.40
2022-11-27T11:02:40.599Z,31.30
2022-11-27T11:08:20.126Z,19.65
2022-11-27T11:10:54.443Z,15.50
2022-11-27T11:13:33.984Z,9.63
2022-11-27T11:16:03.864Z,12.40
2022-11-27T11:18:34.145Z,10.73
2022-11-27T11:21:05.217Z,15.07
2022-11-27T11:23:36.037Z,10.02
2022-11-27T11:26:14.278Z,13.23
2022-11-27T11:28:50.734Z,11.10
2022-11-27T11:31:21.955Z,11.07
2022-11-27T11:34:20.778Z,11.43
2022-11-27T11:37:25.158Z,13.40
2022-11-27T11:40:14.645Z,37.78
2022-11-27T11:42:55.959Z,12.77
2022-11-27T11:45:25.660Z,13.55
2022-11-27T11:47:58.310Z,17.08
2022-11-27T11:50:36.121Z,25.08
2022-11-27T11:53:26.597Z,19.67
2022-11-27T11:56:12.816Z,9.85
2022-11-27T11:58:59.092Z,8.43
2022-11-27T12:01:27.660Z,8.82
2022-11-27T12:04:22.846Z,10.50
2022-11-27T12:07:12.183Z,8.93
2022-11-27T12:09:47.618Z,8.85
2022-11-27T12:12:36.015Z,10.70
2022-11-27T12:15:26.598Z,13.63
2022-11-27T12:18:09.203Z,21.92
2022-11-27T12:20:59.456Z,23.75
2022-11-27T12:23:54.647Z,22.05
2022-11-27T12:26:48.578Z,16.02
2022-11-27T12:29:16.144Z,9.93
2022-11-27T12:31:58.513Z,10.88
2022-11-27T12:34:51.290Z,9.82
2022-11-27T12:37:49.313Z,10.10
2022-11-27T12:40:29.981Z,13.65
2022-11-27T12:43:20.346Z,10.35
2022-11-27T12:45:54.591Z,9.38
2022-11-27T12:48:25.189Z,10.52
2022-11-27T12:50:59.072Z,11.88
2022-11-27T12:53:26.664Z,13.57
2022-11-27T12:56:01.637Z,23.25
2022-11-27T12:58:44.769Z,13.98
2022-11-27T13:01:25.079Z,9.73
2022-11-27T13:04:34.944Z,33.65
2022-11-27T13:07:04.920Z,21.60
2022-11-27T13:09:42.740Z,18.33
2022-11-27T13:12:16.443Z,30.23
2022-11-27T13:14:51.184Z,22.77
2022-11-27T13:17:20.155Z,31.85
2022-11-27T13:19:51.897Z,17.35
2022-11-27T13:22:34.923Z,12.63
2022-11-27T13:25:03.188Z,16.20
2022-11-27T13:27:33.644Z,11.80
2022-11-27T13:30:08.850Z,12.02
2022-11-27T13:32:46.959Z,11.40
2022-11-27T13:35:39.106Z,12.57
2022-11-27T13:38:23.151Z,11.38
2022-11-27T13:40:53.504Z,12.68
2022-11-27T13:43:38.785Z,12.50
2022-11-27T13:46:30.880Z,16.27
2022-11-27T13:49:05.369Z,21.02
2022-11-27T13:51:38.534Z,32.40
2022-11-27T13:54:17.243Z,26.47
2022-11-27T13:56:44.879Z,17.77
2022-11-27T13:59:16.587Z,21.70
2022-11-27T14:02:05.648Z,18.70
2022-11-27T14:04:34.533Z,30.48
2022-11-27T14:07:11.491Z,31.60
2022-11-27T14:09:52.853Z,29.88
2022-11-27T14:12:27.114Z,38.30
2022-11-27T14:15:17.068Z,26.08
2022-11-27T14:17:46.062Z,29.02
2022-11-27T14:20:18.990Z,18.38
2022-11-27T14:23:10.081Z,16.50
2022-11-27T14:25:38.309Z,26.52
2022-11-27T14:28:22.107Z,26.73
2022-11-27T14:30:55.583Z,31.25
2022-11-27T14:33:33.212Z,56.03
2022-11-27T14:36:07.822Z,49.67
2022-11-27T14:38:36.073Z,29.75
2022-11-27T14:41:15.554Z,23.92
2022-11-27T14:43:43.173Z,20.65
2022-11-27T14:46:21.716Z,27.73
2022-11-27T14:48:57.314Z,21.52
2022-11-27T14:51:27.314Z,21.50
2022-11-27T14:54:10.111Z,29.02
2022-11-27T14:56:41.992Z,17.38
2022-11-27T14:59:24.144Z,20.23
2022-11-27T15:02:02.181Z,22.58
2022-11-27T15:04:35.138Z,35.75
2022-11-27T15:07:06.778Z,33.60
2022-11-27T15:09:36.041Z,30.67
2022-11-27T15:12:29.357Z,20.98
2022-11-27T15:15:08.292Z,16.95
2022-11-27T15:17:38.874Z,20.15
2022-11-27T15:20:16.682Z,23.73
2022-11-27T15:22:51.811Z,24.83
2022-11-27T15:25:39.371Z,22.83
2022-11-27T15:28:40.933Z,29.38
2022-11-27T15:31:28.001Z,32.92
2022-11-27T15:34:14.568Z,22.13
2022-11-27T15:36:44.407Z,22.30
2022-11-27T15:39:24.046Z,34.75
2022-11-27T15:42:02.435Z,36.83
2022-11-27T15:44:31.923Z,29.67
2022-11-27T15:47:01.478Z,48.20
2022-11-27T15:49:29.414Z,30.35
2022-11-27T15:51:58.177Z,41.22
2022-11-27T15:54:25.710Z,26.50
2022-11-27T15:56:53.232Z,24.02
2022-11-27T15:59:20.999Z,37.63
2022-11-27T16:01:49.862Z,38.42
2022-11-27T16:04:17.454Z,38.90
2022-11-27T16:06:44.643Z,24.23
2022-11-27T16:09:11.800Z,43.38
2022-11-27T16:11:39.372Z,27.63
2022-11-27T16:14:06.926Z,29.88
2022-11-27T16:16:35.423Z,29.05
2022-11-27T16:19:05.650Z,28.30
2022-11-27T16:21:34.838Z,30.80
2022-11-27T16:24:04.930Z,40.53
2022-11-27T16:26:32.863Z,31.95
2022-11-27T16:29:00.453Z,33.55
2022-11-27T16:31:28.145Z,36.10
2022-11-27T16:33:55.414Z,25.17
2022-11-27T16:36:23.494Z,25.20
2022-11-27T16:38:53.249Z,79.00
2022-11-27T16:41:21.054Z,41.13
2022-11-27T16:43:51.026Z,32.08
2022-11-27T16:46:26.075Z,62.75
2022-11-27T16:48:54.654Z,51.25
2022-11-27T16:51:24.187Z,36.85
2022-11-27T16:53:54.847Z,46.53
2022-11-27T16:56:26.946Z,43.13
2022-11-27T16:59:00.962Z,50.00
2022-11-27T17:01:36.069Z,37.15
2022-11-27T17:04:07.343Z,39.10
2022-11-27T17:06:34.945Z,27.08
2022-11-27T17:09:04.751Z,27.05
2022-11-27T17:11:34.103Z,37.13
2022-11-27T17:14:04.134Z,27.42
2022-11-27T17:16:31.474Z,24.13
2022-11-27T17:18:58.741Z,18.90
2022-11-27T17:21:29.492Z,29.17
2022-11-27T17:23:58.819Z,24.55
2022-11-27T17:26:28.250Z,19.33
2022-11-27T17:28:56.507Z,16.25
2022-11-27T17:31:35.739Z,18.20
2022-11-27T17:34:04.670Z,15.88
2022-11-27T17:36:36.894Z,19.88
2022-11-27T17:39:06.247Z,16.85
2022-11-27T17:41:34.741Z,23.45
2022-11-27T17:44:05.530Z,21.65
2022-11-27T17:46:33.317Z,25.90
2022-11-27T17:49:02.231Z,26.38
2022-11-27T17:51:31.870Z,18.02
2022-11-27T17:54:01.339Z,29.52
2022-11-27T17:56:29.733Z,28.67
2022-11-27T17:58:57.335Z,16.48
2022-11-27T18:01:26.814Z,31.52
2022-11-27T18:04:00.623Z,29.70
2022-11-27T18:06:28.213Z,36.08
2022-11-27T18:08:57.592Z,29.33
2022-11-27T18:11:28.198Z,30.88
2022-11-27T18:13:55.537Z,27.52
2022-11-27T18:16:30.920Z,63.17
2022-11-27T18:18:59.636Z,25.27
2022-11-27T18:21:28.820Z,19.35
2022-11-27T18:29:31.457Z,21.23
2022-11-27T18:31:59.045Z,15.25
2022-11-27T18:34:26.543Z,27.23
2022-11-27T18:36:57.501Z,19.08
2022-11-27T18:39:24.781Z,19.45
2022-11-27T18:41:52.671Z,17.30
2022-11-27T18:44:19.908Z,17.08
2022-11-27T18:46:47.173Z,15.45
2022-11-27T18:49:14.588Z,20.35
2022-11-27T18:51:41.764Z,16.33
2022-11-27T18:54:09.382Z,17.65
2022-11-27T18:56:37.761Z,15.85
2022-11-27T18:59:06.541Z,19.63
2022-11-27T19:01:41.318Z,35.35
2022-11-27T19:04:10.237Z,17.38
2022-11-27T19:06:38.469Z,19.50
2022-11-27T19:09:06.393Z,16.80
2022-11-27T19:11:35.161Z,16.08
2022-11-27T19:14:02.770Z,14.27
2022-11-27T19:16:42.150Z,15.32
2022-11-27T19:19:34.597Z,14.98
2022-11-27T19:21:57.115Z,14.15
2022-11-27T19:24:24.317Z,15.18
2022-11-27T19:26:51.636Z,16.70
2022-11-27T19:29:18.949Z,16.58
2022-11-27T19:31:46.347Z,17.30
2022-11-27T19:34:13.901Z,14.48
2022-11-27T19:36:41.087Z,13.60
2022-11-27T19:39:12.324Z,14.63
2022-11-27T19:41:39.776Z,16.90
2022-11-27T19:44:08.645Z,15.63
2022-11-27T19:46:37.756Z,16.40
2022-11-27T19:49:08.012Z,14.77
2022-11-27T19:51:39.628Z,15.77
2022-11-27T19:54:10.365Z,13.93
2022-11-27T19:56:40.244Z,15.65
2022-11-27T19:59:08.399Z,16.17
2022-11-27T20:01:36.192Z,17.00
2022-11-27T20:04:04.227Z,17.20
2022-11-27T20:06:31.692Z,18.38
2022-11-27T20:09:01.379Z,15.27
2022-11-27T20:11:34.096Z,14.98
2022-11-27T20:14:04.489Z,14.57
2022-11-27T20:16:32.829Z,14.27
2022-11-27T20:19:01.565Z,13.20
2022-11-27T20:21:28.985Z,14.70
2022-11-27T20:23:57.073Z,14.68
2022-11-27T20:26:26.595Z,14.60
2022-11-27T20:28:54.917Z,14.38
2022-11-27T20:31:28.304Z,13.93
2022-11-27T20:33:58.142Z,14.00
2022-11-27T20:36:25.793Z,12.98
2022-11-27T20:38:55.741Z,13.48
2022-11-27T20:41:22.953Z,13.13
2022-11-27T20:43:55.548Z,15.82
2022-11-27T20:46:23.122Z,13.80
2022-11-27T20:48:51.989Z,15.63
2022-11-27T20:51:22.190Z,15.07
2022-11-27T20:53:50.292Z,14.77
2022-11-27T20:56:19.766Z,15.70
2022-11-27T20:58:47.952Z,14.88
2022-11-27T21:01:19.665Z,14.40
2022-11-27T21:03:48.422Z,15.35
2022-11-27T21:06:16.975Z,16.42
2022-11-27T21:08:44.271Z,15.05
2022-11-27T21:11:17.332Z,15.32
2022-11-27T21:13:45.357Z,14.52
2022-11-27T21:16:14.466Z,14.20
2022-11-27T21:18:41.697Z,13.07
2022-11-27T21:21:14.573Z,13.65
2022-11-27T21:23:42.447Z,13.38
2022-11-27T21:26:11.321Z,13.85
2022-11-27T21:28:39.196Z,14.10
2022-11-27T21:31:12.037Z,14.02
2022-11-27T21:33:39.502Z,14.32
2022-11-27T21:36:06.986Z,13.55
2022-11-27T21:38:34.222Z,13.73
2022-11-27T21:41:01.326Z,13.90
2022-11-27T21:43:28.692Z,14.48
2022-11-27T21:45:55.936Z,13.85
2022-11-27T21:48:23.111Z,13.75
2022-11-27T21:50:50.683Z,14.52
2022-11-27T21:53:18.062Z,14.18
2022-11-27T21:55:45.813Z,12.55
2022-11-27T21:58:13.292Z,11.88
2022-11-27T22:00:40.738Z,12.50
2022-11-27T22:03:07.903Z,11.65
2022-11-27T22:05:35.357Z,11.98
2022-11-27T22:08:02.926Z,12.38
2022-11-27T22:10:30.057Z,12.43
2022-11-27T22:12:57.600Z,12.82
2022-11-27T22:15:24.873Z,11.95
2022-11-27T22:17:52.111Z,12.30
2022-11-27T22:20:19.228Z,12.90
2022-11-27T22:22:46.999Z,12.68
2022-11-27T22:25:14.431Z,12.30
2022-11-27T22:27:41.747Z,12.15
2022-11-27T22:30:09.557Z,12.15
2022-11-27T22:32:36.762Z,12.43
2022-11-27T22:35:04.069Z,12.73
2022-11-27T22:37:31.356Z,13.20
2022-11-27T22:39:59.131Z,12.60
2022-11-27T22:42:26.676Z,12.25
2022-11-27T22:44:54.121Z,11.52
2022-11-27T22:47:21.257Z,11.85
2022-11-27T22:49:48.511Z,11.40
2022-11-27T22:52:15.977Z,10.80
2022-11-27T22:54:43.407Z,11.25
2022-11-27T22:57:10.966Z,10.55
2022-11-27T22:59:38.111Z,10.93
2022-11-27T23:02:06.438Z,10.90
2022-11-27T23:04:35.153Z,10.45
2022-11-27T23:07:02.666Z,11.35
2022-11-27T23:09:30.153Z,11.77
2022-11-27T23:11:57.754Z,6.30
2022-11-27T23:14:26.415Z,5.85
2022-11-27T23:16:53.782Z,6.82
2022-11-27T23:19:21.374Z,8.57
2022-11-27T23:21:48.571Z,7.78
2022-11-27T23:24:17.136Z,6.50
2022-11-27T23:26:46.041Z,6.55
2022-11-27T23:29:14.365Z,7.72
2022-11-27T23:31:42.241Z,8.23
2022-11-27T23:34:13.369Z,8.90
2022-11-27T23:36:41.088Z,9.80
2022-11-27T23:39:11.100Z,9.85
2022-11-27T23:41:39.793Z,8.40
2022-11-27T23:44:07.336Z,7.50
2022-11-27T23:46:34.662Z,10.27
2022-11-27T23:49:01.898Z,7.90
2022-11-27T23:51:31.885Z,8.27
2022-11-27T23:53:59.378Z,7.55
2022-11-27T23:56:29.901Z,9.20
2022-11-27T23:58:58.171Z,12.40
